Montmelo, Spain
Current Conditions -  °F | °C
As of 3:00 PM on Monday 24 Nov 2014 (Local Time) from LELL Reporting Station
Scattered Clouds Scattered Clouds  
Wind Chill: 68°   Ceiling: Unl
Heat Index: 68°   Visibility: 6mi
Dew Point: 61°   Wind: 7mph
Humidity: 78%   Direction: 40°NE
Pressure: 30.03"   Gusts: NA
Location:  41.55°N, 2.24°E
Report Text: LELL 241400Z 04006KT 350V080 9999 FEW020 SCT070 20/16 Q1017
Loading
Personal Weather Stations






























Interactive Weather Map New forecast layout! Learn more

10-Day Weather Forecast

Advertisements
Track Severe Weather on mobile